Białystok-Krywlany Airport

EPBK · Podlasie, 波兰

使用的METAR站距离机场80 km。
罗盘
风向 的 风向 的 风向 到 风向 310° Białystok-Krywlany Airport 9R/27L
风: 8 kt, 3 beaufort

6 kt

5 kt
改变
0 ft 1.000 2.000 3.000 4.000 5.000
Cloud Cloud Cloud Cloud Cloud Cloud
BKN 2.400
METAR EYVI 191920Z 31008KT 280V340 9999 BKN024CB 16/12 Q1011 NOSIG

METAR Białystok-Krywlany Airport - EPBK

Białystok-Krywlany Airport是,波兰中的小机场。 该机场位于纬度53,10157和经度23,17213。 该机场有2条跑道: 9R/27L 和 9L/27R. 本场的ICAO机场代码为EPBK。 机场在Vilnius FIR中。

该航空气象观测是针对维尔纽斯国际机场在2024年6月19日 22:20, 当地时间进行的。

机场观察

风向为310°,速度为8 kt。 风向在280°和340°之间变化。

可见度为10 km 或者更多。

有碎云 积雨云在2.400 ft的高度。 破损或更高的上限为2.400 ft。

温度和风寒是16 °C。 露点为12 °C,相对湿度为77%。 海平面上的气压为1011 hPa (QNH)。

白天

今天,太阳从04:00升起,在20:57降落。 这适用于Białystok-Krywlany Airport,世界夏令时可能有所不同。 当地时间与世界标准时间之间的时差为+2 小时。 夏令时目前正在进行中。

公司介绍

在这个机场,你可以找到跳伞中心。 本场上唯一已知的公司是Sekcja Spadochornowa Aeroklubu Bia³ostockiego。

体会

到Vliegles.nl去找飞行课程,跳伞和其他飞行体验。 浏览页面,了解Białystok-Krywlany Airport附近所有可用的活动。 你也可以使用搜索功能来寻找你所在地附近的特定飞行课程、跳伞或其他飞行体验。

跑道

Id 标题 侧风 逆风 侧风 %
9R/27L 092°-272° 5 kt 6 kt 62 %
9L/27R 092°-272° 5 kt 6 kt 62 %

逆风成分最大的方向会被突出显示,并用于横风计算。 这并不一定意味着这个方向在使用。

乌云

2.400 ft BKN 碎云 积雨云

温度 & 天气

温度 16 °C
露点 12 °C
相对湿度 77%
Kp-index 1 (0-9)

白天

日出
03:41 (6:01)
中午
12:20
日落
20:58

小工具

你想在你的网站上有一个关于Białystok-Krywlany Airport的当前航空天气(METAR)的小部件吗?

显示HTML代码
报告变更